createdAt,value
2022-10-26T00:00:00.337Z,94163.31
2022-10-26T00:01:09.150Z,94158.13
2022-10-26T00:02:05.975Z,94187.91
2022-10-26T00:03:02.627Z,94191.47
2022-10-26T00:03:59.207Z,94160.22
2022-10-26T00:04:55.748Z,94193.38
2022-10-26T00:05:52.345Z,94192.59
2022-10-26T00:06:49.002Z,94192.81
2022-10-26T00:07:45.585Z,94187.28
2022-10-26T00:08:42.792Z,94150.09
2022-10-26T00:09:39.339Z,94189.03
2022-10-26T00:10:40.251Z,94191.09
2022-10-26T00:11:36.885Z,94193.84
2022-10-26T00:12:33.435Z,94188.16
2022-10-26T00:13:30.238Z,94154.97
2022-10-26T00:14:27.203Z,94195.06
2022-10-26T00:15:23.774Z,94194.72
2022-10-26T00:16:24.478Z,94187.13
2022-10-26T00:17:21.133Z,94193.06
2022-10-26T00:18:17.679Z,94195.28
2022-10-26T00:19:14.356Z,94183.50
2022-10-26T00:20:11.382Z,94196.09
2022-10-26T00:21:09.788Z,94191.03
2022-10-26T00:22:06.391Z,94195.34
2022-10-26T00:23:02.976Z,94199.16
2022-10-26T00:24:00.204Z,94196.94
2022-10-26T00:24:56.772Z,94206.88
2022-10-26T00:25:57.068Z,94196.91
2022-10-26T00:26:53.638Z,94137.56
2022-10-26T00:27:50.372Z,94198.31
2022-10-26T00:28:47.340Z,94196.97
2022-10-26T00:29:44.068Z,94193.22
2022-10-26T00:30:40.742Z,94191.31
2022-10-26T00:31:37.346Z,94192.78
2022-10-26T00:32:34.331Z,94202.59
2022-10-26T00:33:32.462Z,94204.81
2022-10-26T00:34:29.031Z,94200.16
2022-10-26T00:35:44.505Z,94196.34
2022-10-26T00:36:42.009Z,94187.06
2022-10-26T00:37:38.590Z,94174.84
2022-10-26T00:38:35.143Z,94203.03
2022-10-26T00:39:31.864Z,94205.13
2022-10-26T00:40:29.387Z,94162.53
2022-10-26T00:41:29.380Z,94205.31
2022-10-26T00:42:26.142Z,94200.53
2022-10-26T00:43:22.753Z,94207.28
2022-10-26T00:44:47.471Z,94206.91
2022-10-26T00:45:45.403Z,94207.19
2022-10-26T00:46:41.956Z,94186.09
2022-10-26T00:47:45.220Z,94200.44
2022-10-26T00:48:45.956Z,94199.97
2022-10-26T00:49:46.676Z,94201.28
2022-10-26T00:50:46.692Z,94179.88
2022-10-26T00:51:48.732Z,94193.94
2022-10-26T00:52:45.415Z,94196.06
2022-10-26T00:53:42.668Z,94201.75
2022-10-26T00:54:39.633Z,94199.53
2022-10-26T00:55:40.425Z,94199.13
2022-10-26T00:56:37.342Z,94193.50
2022-10-26T00:58:32.670Z,94198.56
2022-10-26T00:59:29.382Z,94143.31
2022-10-26T01:00:26.025Z,94202.25
2022-10-26T01:01:22.695Z,94206.16
2022-10-26T01:02:19.423Z,94199.47
2022-10-26T01:03:17.106Z,94162.28
2022-10-26T01:04:14.781Z,94195.22
2022-10-26T01:05:12.460Z,94167.22
2022-10-26T01:06:13.603Z,94197.13
2022-10-26T01:07:10.704Z,94159.09
2022-10-26T01:08:09.358Z,94191.81
2022-10-26T01:09:06.270Z,94167.69
2022-10-26T01:10:03.014Z,94198.19
2022-10-26T01:11:00.437Z,94190.09
2022-10-26T01:11:56.996Z,94193.44
2022-10-26T01:12:56.768Z,94198.56
2022-10-26T01:13:54.191Z,94187.00
2022-10-26T01:14:50.880Z,94199.91
2022-10-26T01:16:10.658Z,94183.16
2022-10-26T01:17:10.339Z,94195.91
2022-10-26T01:18:17.602Z,94156.78
2022-10-26T01:19:35.611Z,94194.69
2022-10-26T01:21:09.562Z,94193.59
2022-10-26T01:22:19.691Z,94198.22
2022-10-26T01:23:48.763Z,94193.91
2022-10-26T01:24:51.113Z,94191.00
2022-10-26T01:26:17.493Z,94185.81
2022-10-26T01:27:48.795Z,94094.88
2022-10-26T01:29:13.296Z,94192.50
2022-10-26T01:30:31.172Z,94191.81
2022-10-26T01:31:34.343Z,94182.22
2022-10-26T01:32:42.975Z,94178.56
2022-10-26T01:33:52.061Z,94192.69
2022-10-26T01:35:14.839Z,94195.34
2022-10-26T01:36:26.266Z,94169.56
2022-10-26T01:37:29.415Z,94185.78
2022-10-26T01:38:35.740Z,94187.34
2022-10-26T01:39:46.092Z,94173.22
2022-10-26T01:40:54.694Z,94157.34
2022-10-26T01:41:53.211Z,94175.31
2022-10-26T01:42:53.802Z,94186.13
2022-10-26T01:43:56.701Z,94078.22
2022-10-26T01:44:59.022Z,94192.78
2022-10-26T01:45:57.274Z,94172.13
2022-10-26T01:46:56.854Z,94197.28
2022-10-26T01:47:56.503Z,94150.66
2022-10-26T01:48:59.069Z,94188.91
2022-10-26T01:49:58.531Z,94196.91
2022-10-26T01:50:57.764Z,94195.78
2022-10-26T01:51:54.757Z,94178.56
2022-10-26T01:52:51.462Z,94143.88
2022-10-26T01:53:48.073Z,94191.47
2022-10-26T01:54:44.746Z,94184.69
2022-10-26T01:55:51.556Z,94178.78
2022-10-26T01:56:53.785Z,94188.31
2022-10-26T01:57:51.964Z,94186.94
2022-10-26T01:59:07.272Z,94181.47
2022-10-26T02:00:12.002Z,94143.63
2022-10-26T02:01:29.539Z,94179.44
2022-10-26T02:02:34.561Z,94188.56
2022-10-26T02:03:54.367Z,94179.91
2022-10-26T02:05:00.329Z,94170.97
2022-10-26T02:06:35.937Z,94177.47
2022-10-26T02:07:41.750Z,94181.47
2022-10-26T02:08:54.248Z,94181.03
2022-10-26T02:10:13.808Z,94177.69
2022-10-26T02:11:34.911Z,94183.47
2022-10-26T02:12:50.042Z,94175.44
2022-10-26T02:13:56.417Z,94180.31
2022-10-26T02:15:32.203Z,94180.22
2022-10-26T02:16:48.664Z,94124.88
2022-10-26T02:17:50.961Z,94177.91
2022-10-26T02:18:50.387Z,94179.78
2022-10-26T02:19:58.557Z,94168.34
2022-10-26T02:21:17.855Z,94123.00
2022-10-26T02:22:32.181Z,94185.38
2022-10-26T02:23:32.763Z,94188.47
2022-10-26T02:24:31.876Z,94109.44
2022-10-26T02:25:32.514Z,94179.75
2022-10-26T02:26:32.844Z,94174.50
2022-10-26T02:27:35.116Z,94174.47
2022-10-26T02:28:37.728Z,94180.91
2022-10-26T02:29:35.546Z,94162.44
2022-10-26T02:30:35.178Z,94178.78
2022-10-26T02:31:33.938Z,94155.19
2022-10-26T02:32:35.215Z,94175.00
2022-10-26T02:33:36.885Z,94117.19
2022-10-26T02:34:37.595Z,94176.28
2022-10-26T02:35:36.850Z,94166.44
2022-10-26T02:36:36.604Z,94097.66
2022-10-26T02:37:35.746Z,94168.34
2022-10-26T02:38:34.514Z,94190.78
2022-10-26T02:39:34.686Z,94196.09
2022-10-26T02:40:33.598Z,94159.88
2022-10-26T02:41:31.050Z,94189.22
2022-10-26T02:42:28.337Z,94188.66
2022-10-26T02:43:26.720Z,94184.84
2022-10-26T02:44:30.171Z,94170.06
2022-10-26T02:45:33.434Z,94187.31
2022-10-26T02:46:30.196Z,94190.75
2022-10-26T02:47:27.629Z,94143.63
2022-10-26T02:48:24.542Z,94182.19
2022-10-26T02:49:21.762Z,94191.09
2022-10-26T02:50:22.527Z,94191.66
2022-10-26T02:51:40.117Z,94191.06
2022-10-26T02:52:51.585Z,94192.28
2022-10-26T02:53:54.891Z,94193.97
2022-10-26T02:54:57.761Z,94200.41
2022-10-26T02:55:54.489Z,94194.94
2022-10-26T02:56:59.924Z,94154.03
2022-10-26T02:58:02.829Z,94201.19
2022-10-26T02:59:04.561Z,94169.84
2022-10-26T03:00:03.644Z,94198.78
2022-10-26T03:01:00.575Z,94197.19
2022-10-26T03:01:58.287Z,94193.94
2022-10-26T03:02:58.086Z,94200.84
2022-10-26T03:03:58.235Z,94206.16
2022-10-26T03:04:56.349Z,94202.75
2022-10-26T03:05:52.921Z,94204.88
2022-10-26T03:06:54.408Z,94211.59
2022-10-26T03:07:51.048Z,94212.75
2022-10-26T03:08:47.653Z,94217.19
2022-10-26T03:09:44.263Z,94207.50
2022-10-26T03:10:43.215Z,94211.22
2022-10-26T03:11:39.770Z,94227.69
2022-10-26T03:12:36.351Z,94216.69
2022-10-26T03:13:32.933Z,94209.31
2022-10-26T03:14:29.464Z,94224.19
2022-10-26T03:15:26.120Z,94201.63
2022-10-26T03:16:22.712Z,94217.41
2022-10-26T03:17:19.274Z,94171.16
2022-10-26T03:18:15.879Z,94213.41
2022-10-26T03:19:12.524Z,94211.97
2022-10-26T03:20:09.804Z,94212.06
2022-10-26T03:21:06.451Z,94215.72
2022-10-26T03:22:03.026Z,94224.94
2022-10-26T03:22:59.710Z,94209.91
2022-10-26T03:23:56.355Z,94211.34
2022-10-26T03:24:52.911Z,94219.97
2022-10-26T03:25:49.460Z,94218.97
2022-10-26T03:26:46.058Z,94221.06
2022-10-26T03:27:43.237Z,94211.31
2022-10-26T03:28:39.788Z,94222.09
2022-10-26T03:29:36.355Z,94201.94
2022-10-26T03:30:33.387Z,94223.63
2022-10-26T03:31:29.952Z,94218.31
2022-10-26T03:32:26.612Z,94215.31
2022-10-26T03:33:25.680Z,94222.22
2022-10-26T03:34:24.477Z,94223.50
2022-10-26T03:35:21.673Z,94199.00
2022-10-26T03:36:18.369Z,94229.19
2022-10-26T03:37:14.960Z,94222.72
2022-10-26T03:38:15.264Z,94181.56
2022-10-26T03:39:12.784Z,94219.41
2022-10-26T03:40:10.146Z,94229.19
2022-10-26T03:41:06.839Z,94231.44
2022-10-26T03:42:03.481Z,94230.81
2022-10-26T03:43:00.114Z,94228.50
2022-10-26T03:43:56.766Z,94224.13
2022-10-26T03:44:53.359Z,94228.13
2022-10-26T03:45:49.941Z,94223.94
2022-10-26T03:46:46.527Z,94228.91
2022-10-26T03:47:45.195Z,94229.22
2022-10-26T03:48:41.847Z,94232.00
2022-10-26T03:49:38.426Z,94230.28
2022-10-26T03:50:35.003Z,94232.38
2022-10-26T03:51:32.091Z,94233.69
2022-10-26T03:52:28.678Z,94197.19
2022-10-26T03:53:26.363Z,94145.75
2022-10-26T03:54:26.177Z,94232.56
2022-10-26T03:55:22.743Z,94227.91
2022-10-26T03:56:19.293Z,94195.09
2022-10-26T03:57:15.866Z,94227.72
2022-10-26T03:58:12.527Z,94228.41
2022-10-26T03:59:09.205Z,94221.03
2022-10-26T04:00:06.387Z,94229.31
2022-10-26T04:01:03.035Z,94227.59
2022-10-26T04:01:59.752Z,94220.13
2022-10-26T04:02:58.427Z,94231.09
2022-10-26T04:03:54.988Z,94233.69
2022-10-26T04:04:51.609Z,94235.84
2022-10-26T04:05:48.166Z,94139.41
2022-10-26T04:06:47.703Z,94218.22
2022-10-26T04:07:44.284Z,94226.28
2022-10-26T04:08:40.843Z,94233.34
2022-10-26T04:09:37.383Z,94186.03
2022-10-26T04:10:34.154Z,94204.13
2022-10-26T04:11:30.799Z,94230.44
2022-10-26T04:12:27.531Z,94234.72
2022-10-26T04:13:24.384Z,94204.13
2022-10-26T04:14:20.974Z,94233.88
2022-10-26T04:15:20.093Z,94231.41
2022-10-26T04:16:16.638Z,94234.06
2022-10-26T04:17:13.243Z,94201.34
2022-10-26T04:18:13.025Z,94236.00
2022-10-26T04:19:09.646Z,94230.03
2022-10-26T04:20:06.880Z,94234.56
2022-10-26T04:21:03.639Z,94238.50
2022-10-26T04:22:00.172Z,94233.16
2022-10-26T04:23:00.977Z,94242.50
2022-10-26T04:23:57.511Z,94241.84
2022-10-26T04:24:54.067Z,94241.41
2022-10-26T04:25:50.758Z,94248.56
2022-10-26T04:26:47.311Z,94242.66
2022-10-26T04:27:43.879Z,94240.66
2022-10-26T04:28:40.442Z,94243.75
2022-10-26T04:29:36.981Z,94239.00
2022-10-26T04:30:34.855Z,94238.81
2022-10-26T04:31:31.570Z,94235.44
2022-10-26T04:32:28.211Z,94238.63
2022-10-26T04:33:24.854Z,94243.13
2022-10-26T04:34:21.376Z,94235.72
2022-10-26T04:35:18.011Z,94246.44
2022-10-26T04:36:14.643Z,94229.00
2022-10-26T04:37:11.297Z,94250.91
2022-10-26T04:38:07.997Z,94241.22
2022-10-26T04:39:04.554Z,94249.06
2022-10-26T04:40:01.166Z,94241.84
2022-10-26T04:40:57.735Z,94245.44
2022-10-26T04:41:54.875Z,94211.03
2022-10-26T04:42:51.853Z,94211.00
2022-10-26T04:43:48.791Z,94251.50
2022-10-26T04:44:45.323Z,94225.19
2022-10-26T04:45:41.876Z,94208.47
2022-10-26T04:46:38.498Z,94258.03
2022-10-26T04:47:35.099Z,94245.53
2022-10-26T04:48:31.761Z,94258.72
2022-10-26T04:49:28.399Z,94255.72
2022-10-26T04:50:27.581Z,94252.44
2022-10-26T04:51:25.035Z,94251.31
2022-10-26T04:52:21.570Z,94260.31
2022-10-26T04:53:18.120Z,94251.97
2022-10-26T04:54:15.085Z,94254.50
2022-10-26T04:55:11.636Z,94261.66
2022-10-26T04:56:08.922Z,94258.69
2022-10-26T04:57:05.531Z,94255.91
2022-10-26T04:58:02.588Z,94261.66
2022-10-26T04:58:59.251Z,94265.25
2022-10-26T04:59:55.803Z,94258.03
2022-10-26T05:00:52.363Z,94265.19
2022-10-26T05:01:49.085Z,94258.69
2022-10-26T05:02:45.772Z,94271.53
2022-10-26T05:03:42.333Z,94269.59
2022-10-26T05:04:38.904Z,94262.66
2022-10-26T05:05:36.725Z,94265.44
2022-10-26T05:06:33.279Z,94266.53
2022-10-26T05:07:29.827Z,94258.09
2022-10-26T05:08:29.219Z,94273.53
2022-10-26T05:09:25.817Z,94266.31
2022-10-26T05:10:22.827Z,94262.91
2022-10-26T05:11:19.559Z,94261.34
2022-10-26T05:12:16.158Z,94266.16
2022-10-26T05:13:12.708Z,94237.38
2022-10-26T05:14:09.851Z,94268.81
2022-10-26T05:15:08.579Z,94254.72
2022-10-26T05:16:05.780Z,94267.97
2022-10-26T05:17:02.396Z,94260.41
2022-10-26T05:18:02.982Z,94259.47
2022-10-26T05:18:59.618Z,94264.91
2022-10-26T05:19:58.129Z,94243.69
2022-10-26T05:20:55.592Z,94261.94
2022-10-26T05:21:53.479Z,94265.97
2022-10-26T05:22:53.374Z,94274.06
2022-10-26T05:23:55.370Z,94264.91
2022-10-26T05:24:52.149Z,94271.50
2022-10-26T05:25:49.359Z,94265.38
2022-10-26T05:26:46.291Z,94252.41
2022-10-26T05:27:42.831Z,94268.66
2022-10-26T05:28:39.376Z,94274.66
2022-10-26T05:29:35.906Z,94274.47
2022-10-26T05:30:32.792Z,94277.91
2022-10-26T05:31:29.441Z,94276.47
2022-10-26T05:32:26.034Z,94279.16
2022-10-26T05:33:23.807Z,94277.06
2022-10-26T05:34:20.392Z,94280.41
2022-10-26T05:35:16.937Z,94277.09
2022-10-26T05:36:13.529Z,94297.69
2022-10-26T05:37:10.092Z,94286.34
2022-10-26T05:38:08.655Z,94284.31
2022-10-26T05:39:05.346Z,94284.31
2022-10-26T05:40:01.946Z,94287.22
2022-10-26T05:40:59.354Z,94272.44
2022-10-26T05:41:55.932Z,94289.78
2022-10-26T05:42:53.060Z,94279.88
2022-10-26T05:43:49.899Z,94292.00
2022-10-26T05:44:46.889Z,94300.16
2022-10-26T05:45:43.644Z,94230.47
2022-10-26T05:46:40.368Z,94290.13
2022-10-26T05:47:45.619Z,94289.09
2022-10-26T05:48:42.290Z,94292.88
2022-10-26T05:49:38.825Z,94261.75
2022-10-26T05:50:35.577Z,94293.97
2022-10-26T05:51:37.225Z,94291.31
2022-10-26T05:52:47.199Z,94295.53
2022-10-26T05:53:43.745Z,94300.16
2022-10-26T05:54:40.414Z,94296.84
2022-10-26T05:55:37.740Z,94295.50
2022-10-26T05:56:43.907Z,94295.44
2022-10-26T05:57:41.374Z,94301.59
2022-10-26T05:58:39.280Z,94306.00
2022-10-26T05:59:36.086Z,94298.69
2022-10-26T06:00:33.069Z,94302.88
2022-10-26T06:02:00.616Z,94304.53
2022-10-26T06:03:16.364Z,94309.81
2022-10-26T06:04:27.967Z,94303.38
2022-10-26T06:05:27.796Z,94302.50
2022-10-26T06:06:24.739Z,94299.47
2022-10-26T06:07:21.562Z,94308.09
2022-10-26T06:08:18.716Z,94308.13
2022-10-26T06:09:15.995Z,94318.00
2022-10-26T06:10:13.200Z,94319.66
2022-10-26T06:11:10.528Z,94318.75
2022-10-26T06:12:07.898Z,94315.84
2022-10-26T06:13:04.758Z,94318.16
2022-10-26T06:14:01.637Z,94321.31
2022-10-26T06:14:58.782Z,94320.97
2022-10-26T06:16:23.096Z,94322.59
2022-10-26T06:17:42.008Z,94329.84
2022-10-26T06:19:03.307Z,94324.22
2022-10-26T06:20:03.267Z,94320.66
2022-10-26T06:21:23.588Z,94324.75
2022-10-26T06:22:39.468Z,94317.59
2022-10-26T06:23:53.554Z,94327.38
2022-10-26T06:24:53.238Z,94326.34
2022-10-26T06:25:58.936Z,94335.09
2022-10-26T06:26:55.484Z,94334.16
2022-10-26T06:28:14.468Z,94333.56
2022-10-26T06:29:32.339Z,94265.78
2022-10-26T06:30:29.023Z,94336.00
2022-10-26T06:31:25.623Z,94335.66
2022-10-26T06:32:25.029Z,94337.81
2022-10-26T06:33:29.545Z,94343.38
2022-10-26T06:34:33.350Z,94328.34
2022-10-26T06:35:43.458Z,94346.22
2022-10-26T06:36:41.647Z,94343.53
2022-10-26T06:37:39.750Z,94356.56
2022-10-26T06:38:38.248Z,94319.06
2022-10-26T06:39:39.416Z,94338.19
2022-10-26T06:40:39.811Z,94336.28
2022-10-26T06:41:37.166Z,94309.66
2022-10-26T06:42:33.998Z,94346.03
2022-10-26T06:43:34.699Z,94354.19
2022-10-26T06:44:31.562Z,94351.31
2022-10-26T06:45:28.380Z,94315.81
2022-10-26T06:46:31.832Z,94355.63
2022-10-26T06:47:42.440Z,94334.66
2022-10-26T06:48:56.380Z,94351.31
2022-10-26T06:50:07.244Z,94342.31
2022-10-26T06:51:04.076Z,94340.22
2022-10-26T06:52:16.975Z,94351.97
2022-10-26T06:53:22.739Z,94363.31
2022-10-26T06:54:23.765Z,94349.91
2022-10-26T06:55:21.973Z,94355.19
2022-10-26T06:56:19.277Z,94361.22
2022-10-26T06:57:17.800Z,94354.88
2022-10-26T06:58:18.271Z,94359.47
2022-10-26T06:59:29.914Z,94352.78
2022-10-26T07:00:27.063Z,94347.41
2022-10-26T07:01:23.862Z,94344.28
2022-10-26T07:02:20.996Z,94347.97
2022-10-26T07:03:17.667Z,94356.88
2022-10-26T07:04:14.271Z,94353.97
2022-10-26T07:05:12.988Z,94351.38
2022-10-26T07:06:10.037Z,94328.91
2022-10-26T07:07:07.202Z,94348.97
2022-10-26T07:08:04.991Z,94361.41
2022-10-26T07:09:01.567Z,94357.63
2022-10-26T07:09:58.163Z,94342.03
2022-10-26T07:10:54.742Z,94362.75
2022-10-26T07:11:51.311Z,94356.31
2022-10-26T07:12:47.949Z,94358.50
2022-10-26T07:13:44.495Z,94360.78
2022-10-26T07:14:41.314Z,94362.53
2022-10-26T07:15:39.135Z,94354.75
2022-10-26T07:16:35.733Z,94350.31
2022-10-26T07:17:32.326Z,94358.16
2022-10-26T07:18:28.950Z,94356.31
2022-10-26T07:19:25.645Z,94342.47
2022-10-26T07:20:22.368Z,94356.38
2022-10-26T07:21:18.975Z,94356.50
2022-10-26T07:22:15.579Z,94356.09
2022-10-26T07:23:12.270Z,94361.63
2022-10-26T07:24:09.184Z,94352.56
2022-10-26T07:25:08.056Z,94342.34
2022-10-26T07:26:04.801Z,94354.06
2022-10-26T07:27:01.523Z,94358.16
2022-10-26T07:27:59.359Z,94345.06
2022-10-26T07:28:56.005Z,94348.75
2022-10-26T07:29:52.573Z,94353.19
2022-10-26T07:30:53.932Z,94348.19
2022-10-26T07:32:51.261Z,94355.13
2022-10-26T07:33:48.139Z,94349.22
2022-10-26T07:34:44.711Z,94354.34
2022-10-26T07:35:41.390Z,94262.19
2022-10-26T07:36:37.961Z,94357.00
2022-10-26T07:37:34.525Z,94345.47
2022-10-26T07:38:31.114Z,94355.56
2022-10-26T07:39:27.831Z,94348.06
2022-10-26T07:40:24.686Z,94354.19
2022-10-26T07:41:21.280Z,94352.75
2022-10-26T07:42:17.904Z,94351.69
2022-10-26T07:43:14.484Z,94339.94
2022-10-26T07:44:11.039Z,94342.28
2022-10-26T07:45:08.059Z,94356.84
2022-10-26T07:46:04.772Z,94356.16
2022-10-26T07:47:01.548Z,94348.41
2022-10-26T07:47:58.273Z,94345.19
2022-10-26T07:48:55.042Z,94351.88
2022-10-26T07:49:51.599Z,94344.56
2022-10-26T07:50:48.295Z,94347.28
2022-10-26T07:51:45.060Z,94327.50
2022-10-26T07:52:41.956Z,94303.28
2022-10-26T07:53:38.671Z,94348.66
2022-10-26T07:54:35.267Z,94350.31
2022-10-26T07:55:31.862Z,94350.28
2022-10-26T07:56:28.940Z,94356.16
2022-10-26T07:57:25.477Z,94351.69
2022-10-26T07:58:25.792Z,94349.97
2022-10-26T07:59:22.339Z,94347.72
2022-10-26T08:00:19.000Z,94355.47
2022-10-26T08:01:16.354Z,94356.56
2022-10-26T08:02:13.099Z,94359.22
2022-10-26T08:03:09.665Z,94351.31
2022-10-26T08:04:06.235Z,94347.69
2022-10-26T08:05:03.620Z,94326.03
2022-10-26T08:06:00.767Z,94347.16
2022-10-26T08:06:57.782Z,94345.91
2022-10-26T08:07:54.331Z,94359.31
2022-10-26T08:08:51.853Z,94345.19
2022-10-26T08:09:48.405Z,94346.09
2022-10-26T08:10:46.124Z,94351.88
2022-10-26T08:11:42.672Z,94354.06
2022-10-26T08:12:39.688Z,94352.94
2022-10-26T08:13:36.255Z,94353.66
2022-10-26T08:14:32.879Z,94353.72
2022-10-26T08:15:29.438Z,94350.59
2022-10-26T08:16:26.113Z,94306.66
2022-10-26T08:17:23.072Z,94356.38
2022-10-26T08:18:19.620Z,94352.53
2022-10-26T08:19:16.259Z,94344.03
2022-10-26T08:20:13.195Z,94348.66
2022-10-26T08:21:21.666Z,94341.13
2022-10-26T08:22:23.001Z,94311.19
2022-10-26T08:23:19.883Z,94349.81
2022-10-26T08:24:16.464Z,94347.31
2022-10-26T08:25:16.278Z,94350.25
2022-10-26T08:26:15.412Z,94346.75
2022-10-26T08:27:12.568Z,94343.78
2022-10-26T08:28:09.167Z,94345.91
2022-10-26T08:29:05.852Z,94353.25
2022-10-26T08:30:02.388Z,94341.41
2022-10-26T08:30:58.971Z,94345.09
2022-10-26T08:31:57.021Z,94345.75
2022-10-26T08:33:04.767Z,94349.94
2022-10-26T08:34:01.917Z,94350.09
2022-10-26T08:34:58.505Z,94327.66
2022-10-26T08:35:57.825Z,94345.94
2022-10-26T08:36:54.368Z,94350.13
2022-10-26T08:37:52.566Z,94349.16
2022-10-26T08:38:49.252Z,94352.31
2022-10-26T08:39:49.097Z,94351.59
2022-10-26T08:40:48.664Z,94344.03
2022-10-26T08:41:47.975Z,94356.34
2022-10-26T08:42:48.953Z,94349.81
2022-10-26T08:43:52.322Z,94348.72
2022-10-26T08:44:58.496Z,94349.47
2022-10-26T08:46:04.552Z,94313.19
2022-10-26T08:47:21.382Z,94346.16
2022-10-26T08:48:24.358Z,94315.34
2022-10-26T08:49:31.064Z,94347.97
2022-10-26T08:50:52.047Z,94349.50
2022-10-26T08:51:52.124Z,94350.06
2022-10-26T08:53:17.294Z,94340.88
2022-10-26T08:54:26.651Z,94354.50
2022-10-26T08:55:29.049Z,94349.09
2022-10-26T08:56:29.119Z,94327.59
2022-10-26T08:57:37.142Z,94357.13
2022-10-26T08:58:43.949Z,94360.75
2022-10-26T08:59:56.567Z,94323.69
2022-10-26T09:00:53.604Z,94358.94
2022-10-26T09:01:50.270Z,94358.28
2022-10-26T09:02:51.564Z,94342.25
2022-10-26T09:03:48.205Z,94355.03
2022-10-26T09:04:45.348Z,94359.13
2022-10-26T09:05:55.835Z,94359.53
2022-10-26T09:07:13.699Z,94357.00
2022-10-26T09:08:35.530Z,94352.59
2022-10-26T09:09:50.639Z,94358.94
2022-10-26T09:10:59.669Z,94358.63
2022-10-26T09:12:10.371Z,94354.00
2022-10-26T09:13:24.707Z,94348.28
2022-10-26T09:14:43.582Z,94353.75
2022-10-26T09:15:57.144Z,94357.38
2022-10-26T09:16:56.431Z,94352.78
2022-10-26T09:18:03.956Z,94359.50
2022-10-26T09:19:32.554Z,94355.25
2022-10-26T09:20:47.768Z,94352.47
2022-10-26T09:22:19.631Z,94358.38
2022-10-26T09:23:24.665Z,94354.97
2022-10-26T09:24:34.197Z,94349.88
2022-10-26T09:25:38.720Z,94353.81
2022-10-26T09:27:00.123Z,94357.66
2022-10-26T09:28:02.158Z,94356.44
2022-10-26T09:29:04.680Z,94354.78
2022-10-26T09:30:06.885Z,94352.25
2022-10-26T09:31:05.025Z,94356.16
2022-10-26T09:32:03.918Z,94360.78
2022-10-26T09:33:05.824Z,94352.53
2022-10-26T09:34:07.000Z,94350.91
2022-10-26T09:35:10.672Z,94345.22
2022-10-26T09:36:15.975Z,94348.00
2022-10-26T09:37:32.197Z,94343.41
2022-10-26T09:38:31.541Z,94323.69
2022-10-26T09:39:39.599Z,94346.09
2022-10-26T09:40:57.079Z,94344.56
2022-10-26T09:41:58.917Z,94339.53
2022-10-26T09:43:05.744Z,94348.06
2022-10-26T09:44:11.783Z,94344.94
2022-10-26T09:45:32.771Z,94338.78
2022-10-26T09:46:33.781Z,94337.97
2022-10-26T09:47:39.349Z,94295.44
2022-10-26T09:48:43.008Z,94300.06
2022-10-26T09:49:51.897Z,94297.00
2022-10-26T09:50:51.392Z,94337.19
2022-10-26T09:51:48.684Z,94334.06
2022-10-26T09:52:45.346Z,94334.09
2022-10-26T09:53:41.936Z,94333.34
2022-10-26T09:54:38.566Z,94334.13
2022-10-26T09:55:44.254Z,94335.28
2022-10-26T09:56:43.771Z,94333.66
2022-10-26T09:57:45.020Z,94333.38
2022-10-26T09:58:59.549Z,94339.91
2022-10-26T09:59:56.468Z,94301.25
2022-10-26T10:00:54.121Z,94339.16
2022-10-26T10:01:50.795Z,94336.81
2022-10-26T10:02:53.618Z,94336.06
2022-10-26T10:04:11.394Z,94313.25
2022-10-26T10:05:49.918Z,94327.94
2022-10-26T10:06:45.659Z,94325.94
2022-10-26T10:07:42.246Z,94293.09
2022-10-26T10:08:38.789Z,94329.84
2022-10-26T10:09:35.403Z,94329.06
2022-10-26T10:10:32.917Z,94331.78
2022-10-26T10:11:39.279Z,94318.66
2022-10-26T10:12:35.910Z,94327.16
2022-10-26T10:13:35.780Z,94322.13
2022-10-26T10:14:40.621Z,94326.38
2022-10-26T10:15:37.304Z,94314.78
2022-10-26T10:16:34.012Z,94315.94
2022-10-26T10:17:30.808Z,94321.75
2022-10-26T10:18:27.463Z,94302.00
2022-10-26T10:19:38.301Z,94272.56
2022-10-26T10:20:34.879Z,94306.25
2022-10-26T10:21:50.127Z,94312.03
2022-10-26T10:22:54.806Z,94313.97
2022-10-26T10:23:53.291Z,94317.50
2022-10-26T10:24:56.634Z,94315.53
2022-10-26T10:26:01.840Z,94310.78
2022-10-26T10:27:15.163Z,94309.72
2022-10-26T10:28:22.477Z,94309.34
2022-10-26T10:29:19.095Z,94307.41
2022-10-26T10:30:31.422Z,94311.66
2022-10-26T10:31:33.022Z,94306.16
2022-10-26T10:32:35.475Z,94310.34
2022-10-26T10:33:42.712Z,94268.97
2022-10-26T10:34:39.268Z,94303.66
2022-10-26T10:35:36.111Z,94308.38
2022-10-26T10:36:34.059Z,94300.66
2022-10-26T10:37:34.988Z,94310.06
2022-10-26T10:38:37.928Z,94263.28
2022-10-26T10:39:42.662Z,94302.66
2022-10-26T10:40:39.269Z,94299.53
2022-10-26T10:41:36.787Z,94304.97
2022-10-26T10:42:38.641Z,94306.13
2022-10-26T10:43:35.349Z,94301.47
2022-10-26T10:44:33.986Z,94293.03
2022-10-26T10:45:31.307Z,94250.31
2022-10-26T10:46:28.598Z,94303.97
2022-10-26T10:47:33.619Z,94297.75
2022-10-26T10:48:31.726Z,94298.75
2022-10-26T10:49:31.064Z,94303.28
2022-10-26T10:50:29.257Z,94292.28
2022-10-26T10:51:25.949Z,94245.94
2022-10-26T10:52:29.076Z,94298.09
2022-10-26T10:53:44.327Z,94294.06
2022-10-26T10:54:40.982Z,94287.41
2022-10-26T10:55:39.457Z,94290.81
2022-10-26T10:56:46.839Z,94288.69
2022-10-26T10:58:00.768Z,94292.25
2022-10-26T10:59:12.394Z,94269.06
2022-10-26T11:00:11.954Z,94261.34
2022-10-26T11:01:15.705Z,94286.28
2022-10-26T11:02:44.753Z,94289.47
2022-10-26T11:03:41.287Z,94283.16
2022-10-26T11:04:56.248Z,94286.31
2022-10-26T11:06:05.787Z,94283.88
2022-10-26T11:07:05.378Z,94281.09
2022-10-26T11:08:28.424Z,94283.84
2022-10-26T11:09:28.832Z,94283.25
2022-10-26T11:10:30.635Z,94277.81
2022-10-26T11:11:50.864Z,94280.31
2022-10-26T11:13:15.079Z,94279.16
2022-10-26T11:14:25.195Z,94287.34
2022-10-26T11:15:26.268Z,94273.63
2022-10-26T11:16:37.570Z,94287.25
2022-10-26T11:18:00.328Z,94282.81
2022-10-26T11:19:03.363Z,94278.81
2022-10-26T11:20:04.139Z,94236.78
2022-10-26T11:21:12.750Z,94284.50
2022-10-26T11:22:16.940Z,94276.41
2022-10-26T11:23:20.994Z,94267.75
2022-10-26T11:24:42.110Z,94250.69
2022-10-26T11:25:49.990Z,94275.09
2022-10-26T11:26:59.168Z,94278.16
2022-10-26T11:28:11.923Z,94279.75
2022-10-26T11:29:14.687Z,94273.28
2022-10-26T11:30:16.407Z,94279.28
2022-10-26T11:31:36.084Z,94277.47
2022-10-26T11:32:55.841Z,94275.00
2022-10-26T11:34:20.082Z,94269.97
2022-10-26T11:35:24.720Z,94273.06
2022-10-26T11:36:25.278Z,94278.81
2022-10-26T11:38:59.938Z,94277.63
2022-10-26T11:40:22.566Z,94274.47
2022-10-26T11:41:19.123Z,94268.34
2022-10-26T11:42:26.040Z,94269.81
2022-10-26T11:43:40.137Z,94241.53
2022-10-26T11:44:40.241Z,94274.22
2022-10-26T11:45:44.228Z,94270.09
2022-10-26T11:46:43.276Z,94275.56
2022-10-26T11:47:54.967Z,94252.72
2022-10-26T11:48:58.954Z,94249.56
2022-10-26T11:50:30.813Z,94271.41
2022-10-26T11:51:33.102Z,94261.81
2022-10-26T11:52:38.277Z,94266.03
2022-10-26T11:53:41.068Z,94261.03
2022-10-26T11:54:45.742Z,94267.38
2022-10-26T11:55:43.475Z,94261.75
2022-10-26T11:56:49.581Z,94261.22
2022-10-26T11:57:47.165Z,94248.13
2022-10-26T11:58:45.965Z,94259.03
2022-10-26T11:59:50.516Z,94259.38
2022-10-26T12:01:01.736Z,94251.44
2022-10-26T12:02:21.363Z,94256.47
2022-10-26T12:03:25.116Z,94260.41
2022-10-26T12:04:25.571Z,94252.78